createdAt,value
2018-12-13T00:04:31.713Z,83.13
2018-12-13T00:09:33.869Z,82.98
2018-12-13T00:14:36.103Z,83.76
2018-12-13T00:19:38.169Z,83.37
2018-12-13T00:24:40.317Z,83.53
2018-12-13T00:29:42.484Z,84.14
2018-12-13T00:34:44.661Z,84.18
2018-12-13T00:39:46.861Z,84.19
2018-12-13T00:44:49.154Z,84.16
2018-12-13T00:49:51.331Z,82.97
2018-12-13T00:54:53.573Z,83.68
2018-12-13T00:59:55.741Z,83.74
2018-12-13T01:04:57.790Z,83.59
2018-12-13T01:09:59.853Z,83.74
2018-12-13T01:15:09.892Z,83.81
2018-12-13T01:20:12.053Z,83.79
2018-12-13T01:25:15.153Z,83.57
2018-12-13T01:30:17.328Z,83.48
2018-12-13T01:35:19.493Z,83.33
2018-12-13T01:40:21.769Z,82.81
2018-12-13T01:45:23.945Z,82.68
2018-12-13T01:50:26.201Z,82.42
2018-12-13T01:55:28.254Z,83.04
2018-12-13T02:00:30.437Z,83.35
2018-12-13T02:05:32.485Z,83.57
2018-12-13T02:10:34.686Z,84.05
2018-12-13T02:15:36.965Z,84.34
2018-12-13T02:20:40.013Z,84.79
2018-12-13T02:25:42.277Z,84.59
2018-12-13T02:30:44.557Z,84.81
2018-12-13T02:35:46.704Z,84.57
2018-12-13T02:40:49.498Z,85.07
2018-12-13T02:45:51.771Z,84.99
2018-12-13T02:50:53.828Z,84.96
2018-12-13T02:55:56.020Z,84.86
2018-12-13T03:00:58.094Z,84.54
2018-12-13T03:06:00.257Z,84.56
2018-12-13T03:11:02.461Z,84.82
2018-12-13T03:16:04.732Z,84.33
2018-12-13T03:21:08.805Z,84.60
2018-12-13T03:26:17.622Z,84.38
2018-12-13T03:31:19.789Z,84.04
2018-12-13T03:36:21.889Z,83.57
2018-12-13T03:41:24.221Z,83.57
2018-12-13T03:46:26.492Z,83.33
2018-12-13T03:51:36.299Z,83.89
2018-12-13T03:56:38.471Z,84.25
2018-12-13T04:01:40.541Z,84.39
2018-12-13T04:06:42.965Z,84.45
2018-12-13T04:11:45.128Z,84.45
2018-12-13T04:16:47.291Z,84.48
2018-12-13T04:21:50.145Z,84.86
2018-12-13T04:26:52.290Z,84.66
2018-12-13T04:31:54.478Z,84.80
2018-12-13T04:36:56.534Z,84.85
2018-12-13T04:41:58.733Z,85.16
2018-12-13T04:47:00.781Z,84.72
2018-12-13T04:52:03.238Z,85.20
2018-12-13T04:57:05.414Z,84.96
2018-12-13T05:02:14.624Z,84.66
2018-12-13T05:07:16.954Z,84.84
2018-12-13T05:12:18.997Z,84.96
2018-12-13T05:17:28.305Z,85.12
2018-12-13T05:22:30.373Z,85.18
2018-12-13T05:27:39.361Z,84.79
2018-12-13T05:32:41.449Z,84.52
2018-12-13T05:37:48.221Z,84.98
2018-12-13T05:42:47.734Z,84.73
2018-12-13T05:47:50.236Z,85.37
2018-12-13T05:52:52.722Z,85.38
2018-12-13T05:57:54.768Z,84.82
2018-12-13T06:02:56.825Z,85.32
2018-12-13T06:07:59.117Z,84.75
2018-12-13T06:13:01.581Z,84.75
2018-12-13T06:18:06.809Z,85.26
2018-12-13T06:23:08.013Z,85.21
2018-12-13T06:28:10.169Z,84.76
2018-12-13T06:33:12.358Z,84.89
2018-12-13T06:38:14.701Z,85.11
2018-12-13T06:43:16.865Z,85.17
2018-12-13T06:48:18.945Z,85.50
2018-12-13T06:53:21.249Z,85.27
2018-12-13T06:58:23.525Z,85.48
2018-12-13T07:03:32.594Z,84.97
2018-12-13T07:08:34.800Z,84.67
2018-12-13T07:13:37.000Z,85.18
2018-12-13T07:18:39.059Z,85.24
2018-12-13T07:23:41.222Z,84.77
2018-12-13T07:28:43.398Z,84.07
2018-12-13T07:33:46.753Z,84.60
2018-12-13T07:38:49.183Z,84.97
2018-12-13T07:43:51.256Z,84.98
2018-12-13T07:48:56.415Z,84.99
2018-12-13T07:53:57.394Z,84.62
2018-12-13T07:58:59.538Z,84.85
2018-12-13T08:04:01.721Z,84.57
2018-12-13T08:09:06.673Z,84.45
2018-12-13T08:14:09.885Z,84.37
2018-12-13T08:19:12.053Z,84.62
2018-12-13T08:24:16.258Z,84.54
2018-12-13T08:29:21.485Z,84.76
2018-12-13T08:34:24.701Z,84.00
2018-12-13T08:39:26.781Z,84.27
2018-12-13T08:44:28.997Z,84.18
2018-12-13T08:49:31.230Z,84.43
2018-12-13T08:54:33.402Z,84.22
2018-12-13T08:59:35.577Z,84.36
2018-12-13T09:04:38.534Z,85.05
2018-12-13T09:09:40.737Z,85.28
2018-12-13T09:14:42.814Z,84.90
2018-12-13T09:19:44.873Z,85.02
2018-12-13T09:24:47.159Z,85.12
2018-12-13T09:29:49.230Z,85.05
2018-12-13T09:34:51.289Z,84.37
2018-12-13T09:39:54.377Z,84.79
2018-12-13T09:44:56.581Z,84.41
2018-12-13T09:49:58.845Z,84.61
2018-12-13T09:55:05.619Z,84.83
2018-12-13T10:00:07.583Z,84.10
2018-12-13T10:05:10.857Z,84.38
2018-12-13T10:10:14.305Z,84.71
2018-12-13T10:15:16.582Z,84.12
2018-12-13T10:20:18.873Z,84.14
2018-12-13T10:25:21.038Z,83.65
2018-12-13T10:30:23.294Z,82.34
2018-12-13T10:35:25.475Z,81.25
2018-12-13T10:40:27.993Z,81.36
2018-12-13T10:45:30.037Z,81.20
2018-12-13T10:50:32.234Z,81.69
2018-12-13T10:55:34.828Z,81.73
2018-12-13T11:00:45.389Z,81.01
2018-12-13T11:05:47.556Z,80.64
2018-12-13T11:10:49.757Z,81.07
2018-12-13T11:15:52.007Z,81.56
2018-12-13T11:20:54.198Z,81.16
2018-12-13T11:25:56.341Z,81.52
2018-12-13T11:30:58.637Z,81.28
2018-12-13T11:36:00.806Z,81.10
2018-12-13T11:41:03.209Z,80.03
2018-12-13T11:46:05.421Z,79.47
2018-12-13T11:51:07.576Z,79.24
2018-12-13T11:56:09.876Z,78.48
2018-12-13T12:01:12.077Z,78.15
2018-12-13T12:06:14.369Z,79.04
2018-12-13T12:11:16.457Z,78.97
2018-12-13T12:16:18.541Z,79.83
2018-12-13T12:21:20.710Z,80.08
2018-12-13T12:26:23.018Z,80.65
2018-12-13T12:31:25.077Z,80.43
2018-12-13T12:36:27.676Z,80.88
2018-12-13T12:41:29.945Z,80.76
2018-12-13T12:46:32.161Z,81.27
2018-12-13T12:51:34.334Z,80.66
2018-12-13T12:56:37.597Z,80.67
2018-12-13T13:01:40.309Z,81.07
2018-12-13T13:06:42.654Z,80.87
2018-12-13T13:17:13.500Z,81.19
2018-12-13T13:22:15.550Z,81.79
2018-12-13T13:27:17.626Z,81.85
2018-12-13T13:32:19.737Z,81.33
2018-12-13T13:37:21.929Z,81.78
2018-12-13T13:42:24.092Z,82.19
2018-12-13T13:47:26.670Z,82.19
2018-12-13T13:52:30.070Z,82.79
2018-12-13T13:57:33.112Z,82.60
2018-12-13T14:02:35.454Z,81.71
2018-12-13T14:07:37.502Z,82.56
2018-12-13T14:12:39.572Z,83.17
2018-12-13T14:17:42.675Z,83.08
2018-12-13T14:22:54.218Z,83.62
2018-12-13T14:27:58.047Z,83.28
2018-12-13T14:33:00.530Z,83.68
2018-12-13T14:38:03.239Z,83.45
2018-12-13T14:43:06.909Z,83.84
2018-12-13T14:48:09.141Z,83.44
2018-12-13T14:53:11.649Z,83.20
2018-12-13T14:58:13.741Z,82.16
2018-12-13T15:03:15.987Z,82.52
2018-12-13T15:08:18.034Z,82.37
2018-12-13T15:13:20.162Z,83.20
2018-12-13T15:18:22.518Z,83.27
2018-12-13T15:23:25.674Z,83.77
2018-12-13T15:28:27.829Z,83.54
2018-12-13T15:33:36.957Z,83.03
2018-12-13T15:38:39.265Z,83.35
2018-12-13T15:43:41.442Z,83.41
2018-12-13T15:48:43.554Z,83.18
2018-12-13T15:53:46.715Z,83.26
2018-12-13T15:58:54.914Z,83.22
2018-12-13T16:03:58.297Z,83.50
2018-12-13T16:09:00.461Z,83.51
2018-12-13T16:14:03.601Z,83.44
2018-12-13T16:19:05.921Z,83.94
2018-12-13T16:24:08.197Z,84.24
2018-12-13T16:29:10.345Z,84.90
2018-12-13T16:34:12.569Z,84.79
2018-12-13T16:39:14.845Z,84.67
2018-12-13T16:44:16.889Z,84.78
2018-12-13T16:49:19.658Z,84.01
2018-12-13T16:54:22.445Z,84.19
2018-12-13T16:59:24.913Z,84.79
2018-12-13T17:04:27.201Z,84.78
2018-12-13T17:09:29.790Z,84.98
2018-12-13T17:14:32.596Z,84.61
2018-12-13T17:19:34.713Z,84.46
2018-12-13T17:24:36.997Z,84.41
2018-12-13T17:29:39.337Z,84.58
2018-12-13T17:34:41.968Z,84.32
2018-12-13T17:39:44.725Z,84.59
2018-12-13T17:44:46.987Z,84.31
2018-12-13T17:49:49.784Z,84.51
2018-12-13T17:54:52.106Z,84.84
2018-12-13T17:59:54.462Z,84.59
2018-12-13T18:04:57.649Z,85.30
2018-12-13T18:10:03.989Z,85.69
2018-12-13T18:15:07.169Z,85.63
2018-12-13T18:20:16.177Z,86.27
2018-12-13T18:25:18.894Z,85.99
2018-12-13T18:30:21.208Z,85.77
2018-12-13T18:35:23.421Z,85.92
2018-12-13T18:40:25.710Z,86.24
2018-12-13T18:45:32.894Z,86.08
2018-12-13T18:50:35.138Z,86.26
2018-12-13T18:55:37.186Z,85.99
2018-12-13T19:00:39.334Z,85.77
2018-12-13T19:05:41.651Z,85.88
2018-12-13T19:10:43.934Z,85.43
2018-12-13T19:15:45.991Z,85.48
2018-12-13T19:20:48.084Z,85.22
2018-12-13T19:25:50.162Z,85.76
2018-12-13T19:30:52.197Z,85.43
2018-12-13T19:35:54.475Z,85.31
2018-12-13T19:40:56.646Z,85.84
2018-12-13T19:45:59.191Z,85.98
2018-12-13T19:51:01.493Z,86.23
2018-12-13T19:56:03.759Z,85.97
2018-12-13T20:01:06.033Z,85.98
2018-12-13T20:06:08.965Z,86.00
2018-12-13T20:11:11.122Z,85.33
2018-12-13T20:16:13.390Z,86.06
2018-12-13T20:21:15.537Z,86.12
2018-12-13T20:26:17.756Z,85.45
2018-12-13T20:31:19.905Z,85.41
2018-12-13T20:36:22.183Z,85.53
2018-12-13T20:41:24.499Z,85.37
2018-12-13T20:46:27.233Z,85.37
2018-12-13T20:51:29.521Z,85.25
2018-12-13T20:56:31.834Z,85.55
2018-12-13T21:01:33.985Z,85.74
2018-12-13T21:06:36.219Z,85.32
2018-12-13T21:11:38.418Z,85.67
2018-12-13T21:16:40.605Z,85.88
2018-12-13T21:21:42.827Z,85.48
2018-12-13T21:26:45.940Z,84.96
2018-12-13T21:31:48.085Z,85.85
2018-12-13T21:36:50.245Z,86.16
2018-12-13T21:41:52.449Z,86.88
2018-12-13T21:46:54.729Z,86.99
2018-12-13T21:51:56.975Z,87.20
2018-12-13T21:56:59.494Z,87.20
2018-12-13T22:02:01.790Z,87.07
2018-12-13T22:07:04.111Z,86.39
2018-12-13T22:12:06.404Z,87.00
2018-12-13T22:17:08.586Z,86.07
2018-12-13T22:22:10.754Z,86.02
2018-12-13T22:27:12.905Z,86.67
2018-12-13T22:32:16.077Z,86.40
2018-12-13T22:37:18.129Z,86.82
2018-12-13T22:42:20.422Z,86.93
2018-12-13T22:47:22.714Z,86.45
2018-12-13T22:52:24.902Z,87.22
2018-12-13T22:57:27.183Z,87.22
2018-12-13T23:02:29.481Z,87.33
2018-12-13T23:07:31.633Z,87.27
2018-12-13T23:12:33.729Z,86.90
2018-12-13T23:17:35.928Z,86.05
2018-12-13T23:22:38.078Z,85.06
2018-12-13T23:27:40.139Z,84.53
2018-12-13T23:32:42.227Z,85.60
2018-12-13T23:37:44.263Z,85.71
2018-12-13T23:42:46.423Z,86.86
2018-12-13T23:47:48.584Z,86.42
2018-12-13T23:52:51.736Z,85.94
2018-12-13T23:57:53.894Z,85.41
